Time;durP1;ratioP1;P1;durP2;ratioP2;P2;SDS_P1;SDS_P2;PMS_P1;PMS_P2;Temp;Humidity;BMP_temperature;BMP_pressure;BME280_temperature;BME280_humidity;BME280_pressure;Samples;Min_cycle;Max_cycle;Signal;HPM_P1;HPM_P2
2023/10/08 00:01:50;;;;;;;12.03;3.13;;;23.00;40.00;;;;;;5073461;28;20407;-54
2023/10/08 00:04:19;;;;;;;21.47;3.20;;;23.10;40.10;;;;;;5073174;28;20458;-53
2023/10/08 00:06:46;;;;;;;19.50;2.67;;;23.00;40.10;;;;;;5073152;28;20485;-52
2023/10/08 00:09:14;;;;;;;18.47;2.27;;;23.10;40.30;;;;;;5073264;28;20431;-51
2023/10/08 00:11:40;;;;;;;17.93;2.43;;;23.00;40.30;;;;;;5073322;28;20419;-50
2023/10/08 00:14:10;;;;;;;12.57;3.10;;;23.00;40.30;;;;;;5072951;28;20414;-53
2023/10/08 00:16:39;;;;;;;12.00;2.13;;;23.00;40.40;;;;;;5072999;28;20506;-51
2023/10/08 00:19:13;;;;;;;16.60;2.47;;;23.10;40.40;;;;;;5072866;28;20704;-52
2023/10/08 00:21:39;;;;;;;15.90;2.40;;;23.20;40.30;;;;;;5073188;28;20411;-51
2023/10/08 00:24:06;;;;;;;21.63;2.90;;;;;;;;;;5073041;28;20407;-51
2023/10/08 00:26:35;;;;;;;15.23;2.60;;;23.00;40.80;;;;;;5072889;28;20407;-53
2023/10/08 00:29:23;;;;;;;20.07;2.80;;;22.90;41.20;;;;;;5072727;28;20925;-54
2023/10/08 00:31:51;;;;;;;12.20;2.20;;;23.00;41.10;;;;;;5072690;28;20412;-51
2023/10/08 00:34:19;;;;;;;18.13;2.50;;;;;;;;;;5072754;28;20419;-53
2023/10/08 00:36:47;;;;;;;17.60;3.40;;;22.90;41.80;;;;;;5072768;28;20532;-55
2023/10/08 00:39:14;;;;;;;13.00;2.00;;;;;;;;;;5072452;28;20521;-52
2023/10/08 00:41:45;;;;;;;14.20;2.30;;;22.80;42.10;;;;;;5072497;28;20444;-53
2023/10/08 00:44:19;;;;;;;21.53;4.10;;;22.70;42.70;;;;;;5072344;28;20407;-51
2023/10/08 00:46:47;;;;;;;15.77;2.27;;;22.70;42.70;;;;;;5072556;28;20758;-52
2023/10/08 00:52:57;;;;;;;14.83;2.70;;;22.70;43.00;;;;;;5072648;28;20920;-52
2023/10/08 00:55:09;;;;;;;14.40;2.43;;;;;;;;;;5071575;28;20425;-52
2023/10/08 00:57:37;;;;;;;16.50;3.20;;;22.60;44.10;;;;;;5072038;28;20478;-53
2023/10/08 01:00:12;;;;;;;15.17;1.97;;;;;;;;;;5071316;28;20435;-52
2023/10/08 01:02:48;;;;;;;16.53;3.00;;;22.50;44.20;;;;;;5072252;28;20439;-52
2023/10/08 01:05:19;;;;;;;26.53;2.63;;;22.50;44.00;;;;;;5072340;28;20836;-51
2023/10/08 01:07:48;;;;;;;16.37;2.90;;;22.50;44.70;;;;;;5055145;28;20754;-53
2023/10/08 01:10:19;;;;;;;14.63;1.90;;;;;;;;;;5072113;28;21130;-54
2023/10/08 01:13:04;;;;;;;17.00;2.83;;;22.40;44.80;;;;;;5072249;28;20391;-51
2023/10/08 01:15:30;;;;;;;19.87;2.57;;;22.30;45.10;;;;;;5071068;28;20820;-52
2023/10/08 01:18:00;;;;;;;14.70;2.40;;;;;;;;;;5072152;28;20455;-54
2023/10/08 01:20:36;;;;;;;12.50;2.67;;;22.20;45.10;;;;;;5072188;28;20403;-51
2023/10/08 01:23:10;;;;;;;12.67;2.47;;;;;;;;;;5071928;28;20593;-53
2023/10/08 01:25:40;;;;;;;16.47;2.60;;;;;;;;;;5072110;28;20401;-51
2023/10/08 01:30:57;;;;;;;14.30;2.77;;;22.10;46.10;;;;;;5072241;28;20791;-51
2023/10/08 01:33:26;;;;;;;13.27;3.40;;;;;;;;;;5071769;28;20460;-53
2023/10/08 01:35:52;;;;;;;18.13;2.53;;;22.00;47.30;;;;;;5071953;28;20406;-53
2023/10/08 01:38:23;;;;;;;15.43;2.90;;;21.90;47.40;;;;;;5071782;28;20829;-51
2023/10/08 01:40:51;;;;;;;14.40;2.80;;;;;;;;;;5071963;28;20255;-52
2023/10/08 01:43:17;;;;;;;11.87;1.63;;;;;;;;;;5071988;28;20400;-53
2023/10/08 01:45:48;;;;;;;12.60;2.87;;;21.70;48.60;;;;;;5071822;28;20746;-52
2023/10/08 01:48:15;;;;;;;11.27;1.73;;;21.50;47.50;;;;;;5071781;28;20438;-51
2023/10/08 01:50:45;;;;;;;10.67;1.63;;;;;;;;;;5071570;28;20414;-54
2023/10/08 01:53:11;;;;;;;18.03;2.33;;;;;;;;;;5071546;28;20410;-53
2023/10/08 01:55:49;;;;;;;13.40;1.67;;;21.20;46.00;;;;;;5071878;28;20402;-52
2023/10/08 01:58:18;;;;;;;12.97;1.57;;;21.10;46.00;;;;;;5071575;28;20461;-53
2023/10/08 02:00:48;;;;;;;14.47;1.77;;;21.00;46.10;;;;;;5071706;28;20407;-52
2023/10/08 02:03:16;;;;;;;30.63;3.40;;;;;;;;;;5071248;28;20483;-54
2023/10/08 02:05:45;;;;;;;12.57;1.57;;;;;;;;;;5071785;28;20406;-52
2023/10/08 02:08:12;;;;;;;10.10;1.20;;;;;;;;;;5071708;28;20394;-50
2023/10/08 02:10:40;;;;;;;13.43;1.73;;;;;;;;;;5071600;28;20517;-53
2023/10/08 02:13:08;;;;;;;18.47;2.13;;;20.40;46.20;;;;;;5074986;28;20905;-53
2023/10/08 02:15:35;;;;;;;11.30;1.30;;;20.40;45.80;;;;;;5075357;28;20479;-51
2023/10/08 02:18:02;;;;;;;17.35;2.00;;;;;;;;;;5074915;28;20465;-54
2023/10/08 02:20:28;;;;;;;15.80;1.77;;;20.10;45.70;;;;;;5074899;28;20184;-52
2023/10/08 02:22:54;;;;;;;13.13;1.60;;;20.10;45.60;;;;;;5075051;28;20394;-51
2023/10/08 02:25:20;;;;;;;17.33;1.83;;;;;;;;;;5074504;28;20467;-52
2023/10/08 02:27:47;;;;;;;14.77;1.63;;;;;;;;;;5074822;28;20403;-52
2023/10/08 02:30:14;;;;;;;10.00;1.33;;;;;;;;;;5074713;28;20472;-50
2023/10/08 02:32:42;;;;;;;9.43;1.23;;;;;;;;;;5074965;28;20403;-51
2023/10/08 02:35:12;;;;;;;12.95;1.60;;;19.50;46.90;;;;;;5074817;28;20407;-53
2023/10/08 02:37:45;;;;;;;14.00;1.63;;;19.50;46.90;;;;;;5074610;28;20265;-50
2023/10/08 02:40:19;;;;;;;11.95;1.35;;;;;;;;;;5074690;28;20425;-51
2023/10/08 02:42:48;;;;;;;15.43;1.53;;;19.50;47.00;;;;;;5074643;28;20547;-53
2023/10/08 02:45:14;;;;;;;13.93;1.43;;;;;;;;;;5073609;28;21044;-52
2023/10/08 02:47:47;;;;;;;15.07;1.67;;;;;;;;;;5074749;28;20464;-51
2023/10/08 02:50:17;;;;;;;17.43;1.83;;;19.40;47.00;;;;;;5073847;28;20435;-53
2023/10/08 02:52:44;;;;;;;8.83;1.23;;;19.40;47.10;;;;;;5085709;28;20443;-51
2023/10/08 02:55:25;;;;;;;13.00;1.60;;;;;;;;;;5094578;28;20472;-50
2023/10/08 02:57:51;;;;;;;11.60;1.30;;;;;;;;;;5090764;28;20204;-53
2023/10/08 03:00:20;;;;;;;13.45;1.75;;;19.40;47.50;;;;;;5074345;28;20935;-50
2023/10/08 03:02:46;;;;;;;12.32;1.35;;;;;;;;;;5074356;28;20176;-51
2023/10/08 03:05:16;;;;;;;12.30;1.63;;;;;;;;;;5074081;28;20181;-53
2023/10/08 03:07:42;;;;;;;15.80;1.73;;;;;;;;;;5074173;28;20936;-51
2023/10/08 03:10:32;;;;;;;16.30;1.75;;;;;;;;;;5074344;28;20516;-51
2023/10/08 03:13:03;;;;;;;11.80;1.33;;;;;;;;;;5074196;28;20177;-50
2023/10/08 03:15:30;;;;;;;20.33;2.17;;;19.20;47.60;;;;;;5074226;28;20185;-53
2023/10/08 03:17:57;;;;;;;9.68;1.20;;;;;;;;;;5073882;28;20446;-52
2023/10/08 03:20:42;;;;;;;17.70;2.10;;;;;;;;;;5073803;28;20283;-52
2023/10/08 03:23:22;;;;;;;22.70;2.40;;;19.10;46.30;;;;;;5072821;28;20788;-51
2023/10/08 03:28:57;;;;;;;1.00;0.40;;;18.90;46.80;;;;;;5065030;28;20208;-50
2023/10/08 03:31:43;;;;;;;1.00;0.40;;;18.60;46.30;;;;;;5073997;28;20195;-52
2023/10/08 03:34:12;;;;;;;1.10;0.60;;;18.60;47.10;;;;;;5068095;28;20666;-52
2023/10/08 03:36:44;;;;;;;1.52;0.95;;;18.50;46.80;;;;;;5073555;28;20674;-51
2023/10/08 03:39:14;;;;;;;1.65;0.95;;;18.50;46.30;;;;;;5073508;28;20193;-51
2023/10/08 03:41:59;;;;;;;1.02;0.65;;;18.50;47.00;;;;;;5073761;28;20184;-54
2023/10/08 03:44:25;;;;;;;2.13;1.05;;;18.40;45.80;;;;;;5073434;28;20253;-51
2023/10/08 03:46:52;;;;;;;4.50;1.23;;;18.30;45.60;;;;;;5072304;28;20210;-51
2023/10/08 03:51:48;;;;;;;5.95;1.15;;;;;;;;;;5073410;28;20184;-49
2023/10/08 03:56:45;;;;;;;14.52;1.80;;;;;;;;;;5075566;28;20204;-52
2023/10/08 03:59:20;;;;;;;15.98;1.60;;;18.00;45.60;;;;;;5093546;28;20196;-49
2023/10/08 04:01:49;;;;;;;13.88;1.63;;;17.90;46.00;;;;;;5089049;28;20222;-50
2023/10/08 04:04:15;;;;;;;13.18;1.67;;;17.90;46.00;;;;;;5072948;28;20192;-53
2023/10/08 04:06:51;;;;;;;15.43;1.65;;;17.90;45.80;;;;;;5073209;28;20710;-50
2023/10/08 04:14:18;;;;;;;18.67;2.08;;;;;;;;;;5071850;28;20177;-50
2023/10/08 04:16:45;;;;;;;25.15;2.25;;;;;;;;;;5072912;28;20280;-50
2023/10/08 04:19:12;;;;;;;10.82;1.35;;;;;;;;;;5073255;28;20579;-50
2023/10/08 04:21:42;;;;;;;13.88;1.50;;;17.50;45.70;;;;;;5071791;28;20666;-52
2023/10/08 04:24:08;;;;;;;16.92;2.15;;;17.50;45.70;;;;;;5072888;28;20230;-53
2023/10/08 04:26:35;;;;;;;16.87;1.57;;;17.40;45.80;;;;;;5072889;28;20643;-50
2023/10/08 04:29:02;;;;;;;21.00;1.92;;;;;;;;;;5072727;28;20886;-53
2023/10/08 04:32:31;;;;;;;14.73;1.42;;;17.40;46.00;;;;;;5072921;28;20263;-50
2023/10/08 04:34:26;;;;;;;17.85;1.67;;;;;;;;;;5071775;28;20267;-50
2023/10/08 04:37:00;;;;;;;16.75;1.63;;;;;;;;;;5072655;28;20199;-53
2023/10/08 04:39:33;;;;;;;16.27;1.70;;;;;;;;;;5072530;28;20605;-49
2023/10/08 04:42:09;;;;;;;15.45;1.60;;;17.10;46.60;;;;;;5072623;28;20169;-50
2023/10/08 04:44:38;;;;;;;16.80;1.73;;;;;;;;;;5072836;28;20234;-53
2023/10/08 04:47:04;;;;;;;11.88;1.30;;;17.10;46.30;;;;;;5072431;28;20229;-50
2023/10/08 04:49:32;;;;;;;20.52;1.85;;;17.00;45.90;;;;;;5072386;28;20671;-50
2023/10/08 04:52:05;;;;;;;17.00;1.77;;;16.90;46.70;;;;;;5072311;28;20180;-53
2023/10/08 04:54:31;;;;;;;16.88;1.63;;;16.90;47.10;;;;;;5072520;28;20251;-52
2023/10/08 04:57:00;;;;;;;13.80;1.40;;;;;;;;;;5072527;28;20299;-49
2023/10/08 04:59:33;;;;;;;14.38;1.55;;;;;;;;;;5072496;28;20425;-52
2023/10/08 05:02:19;;;;;;;21.65;2.13;;;;;;;;;;5072283;28;20250;-50
2023/10/08 05:07:21;;;;;;;14.82;1.83;;;16.90;47.80;;;;;;5072351;28;20188;-51
2023/10/08 05:23:20;;;;;;;14.82;1.63;;;;;;;;;;5072320;28;20589;-49
2023/10/08 05:28:35;;;;;;;1.63;1.00;;;16.90;47.90;;;;;;5072029;28;20185;-52
2023/10/08 05:34:14;;;;;;;1.55;1.20;;;16.90;47.80;;;;;;5071697;28;20172;-52
2023/10/08 05:42:05;;;;;;;14.70;1.85;;;17.00;46.90;;;;;;5071902;28;20180;-55
2023/10/08 05:44:40;;;;;;;14.05;1.60;;;;;;;;;;5070401;28;20229;-52
2023/10/08 05:47:26;;;;;;;11.43;1.70;;;;;;;;;;5074144;28;20164;-51
2023/10/08 05:50:28;;;;;;;13.50;2.10;;;16.90;47.30;;;;;;5075891;28;20731;-53
2023/10/08 05:52:50;;;;;;;15.13;1.88;;;;;;;;;;5075814;28;20175;-50
2023/10/08 05:57:52;;;;;;;13.20;1.67;;;;;;;;;;5075962;28;20204;-54
2023/10/08 06:00:45;;;;;;;11.50;1.52;;;16.80;46.70;;;;;;5074332;28;20184;-49
2023/10/08 06:03:10;;;;;;;11.55;1.65;;;16.70;45.90;;;;;;5075224;28;20241;-50
2023/10/08 06:05:45;;;;;;;11.98;1.75;;;16.70;46.20;;;;;;5074640;28;20161;-55
2023/10/08 06:08:13;;;;;;;12.65;1.70;;;;;;;;;;5075576;28;20173;-51
2023/10/08 06:13:10;;;;;;;22.17;2.97;;;;;;;;;;5075321;28;20669;-53
2023/10/08 06:15:48;;;;;;;13.02;1.83;;;;;;;;;;5075550;28;20796;-50
2023/10/08 06:18:34;;;;;;;10.50;1.30;;;16.30;46.70;;;;;;5075255;28;20193;-53
2023/10/08 06:21:11;;;;;;;12.77;1.85;;;16.20;46.90;;;;;;5075166;28;20172;-54
2023/10/08 06:23:39;;;;;;;19.95;2.75;;;16.30;47.30;;;;;;5075062;28;20172;-50
2023/10/08 06:26:13;;;;;;;12.85;1.60;;;;;;;;;;5075305;28;20176;-51
2023/10/08 06:28:41;;;;;;;12.82;1.63;;;16.20;47.20;;;;;;5075233;28;20204;-53
2023/10/08 06:31:16;;;;;;;14.13;1.83;;;16.20;47.40;;;;;;5075030;28;20173;-53
2023/10/08 06:33:44;;;;;;;12.82;1.73;;;16.20;47.60;;;;;;5073751;28;20227;-53
2023/10/08 06:36:15;;;;;;;15.13;1.90;;;16.20;47.50;;;;;;5074873;28;20177;-53
2023/10/08 06:38:43;;;;;;;12.38;1.40;;;16.20;47.70;;;;;;5074967;28;20257;-52
2023/10/08 06:43:42;;;;;;;13.50;1.75;;;16.20;48.00;;;;;;5074768;28;20302;-52
2023/10/08 06:46:08;;;;;;;14.57;1.92;;;16.30;48.10;;;;;;5074973;28;20172;-51
2023/10/08 06:48:37;;;;;;;16.03;2.67;;;16.30;47.90;;;;;;5073432;28;20203;-54
2023/10/08 06:51:12;;;;;;;19.65;2.70;;;16.30;47.90;;;;;;5074675;28;20407;-53
2023/10/08 06:53:44;;;;;;;13.00;1.52;;;16.40;48.10;;;;;;5074599;28;20187;-52
2023/10/08 06:56:12;;;;;;;12.40;1.52;;;16.40;47.80;;;;;;5074693;28;20176;-55
2023/10/08 06:58:38;;;;;;;15.23;2.00;;;16.50;47.80;;;;;;5073297;28;20215;-51
2023/10/08 07:01:04;;;;;;;14.00;1.75;;;16.50;48.10;;;;;;5073396;28;20168;-50
2023/10/08 07:03:32;;;;;;;13.23;1.70;;;16.60;48.30;;;;;;5074362;28;20208;-53
2023/10/08 07:05:59;;;;;;;13.18;1.67;;;16.60;47.90;;;;;;5074737;28;20180;-52
2023/10/08 07:08:35;;;;;;;13.82;1.95;;;16.60;47.50;;;;;;5074384;28;20200;-51
2023/10/08 07:11:11;;;;;;;13.13;1.67;;;;;;;;;;5074592;28;20556;-52
2023/10/08 07:13:39;;;;;;;10.88;1.48;;;;;;;;;;5074190;28;20259;-50
2023/10/08 07:16:11;;;;;;;12.50;1.77;;;16.60;47.90;;;;;;5074589;28;20191;-50
2023/10/08 07:18:37;;;;;;;10.93;1.45;;;16.60;48.00;;;;;;5074272;28;20212;-50
2023/10/08 07:21:04;;;;;;;13.55;1.60;;;16.60;48.10;;;;;;5074199;28;20255;-50
2023/10/08 07:23:34;;;;;;;13.52;2.17;;;16.60;48.00;;;;;;5072844;28;20203;-55
2023/10/08 07:26:10;;;;;;;11.95;1.50;;;16.60;48.20;;;;;;5074222;28;20226;-53
2023/10/08 07:28:43;;;;;;;17.73;2.53;;;16.70;48.20;;;;;;5074011;28;20199;-50
2023/10/08 07:31:23;;;;;;;8.75;1.35;;;;;;;;;;5074058;28;20673;-54
2023/10/08 07:33:56;;;;;;;14.32;2.15;;;;;;;;;;5073885;28;20176;-52
2023/10/08 07:36:26;;;;;;;12.20;1.88;;;;;;;;;;5073993;28;20180;-54
2023/10/08 07:38:53;;;;;;;14.63;2.13;;;;;;;;;;5074067;28;20199;-55
2023/10/08 07:41:22;;;;;;;14.52;2.03;;;;;;;;;;5073965;28;20323;-50
2023/10/08 07:43:58;;;;;;;9.07;1.65;;;16.70;48.50;;;;;;5073713;28;20184;-51
2023/10/08 07:46:27;;;;;;;11.00;2.03;;;16.70;48.50;;;;;;5073801;28;20172;-51
2023/10/08 07:48:58;;;;;;;12.93;1.92;;;;;;;;;;5073624;28;20197;-51
2023/10/08 07:51:24;;;;;;;15.10;1.75;;;;;;;;;;5073707;28;20183;-53
2023/10/08 07:53:57;;;;;;;13.80;1.75;;;;;;;;;;5073666;28;20222;-53
2023/10/08 07:56:26;;;;;;;11.73;1.55;;;16.70;48.80;;;;;;5073570;28;20172;-52
2023/10/08 07:58:57;;;;;;;12.75;1.73;;;;;;;;;;5073509;28;20204;-53
2023/10/08 08:01:25;;;;;;;13.77;1.58;;;;;;;;;;5073460;28;20207;-50
2023/10/08 08:03:51;;;;;;;15.45;1.80;;;;;;;;;;5071799;28;20249;-52
2023/10/08 08:06:17;;;;;;;12.38;1.77;;;;;;;;;;5072092;28;20168;-52
2023/10/08 08:08:44;;;;;;;14.18;1.67;;;16.60;49.00;;;;;;5072701;28;20195;-51
2023/10/08 08:11:17;;;;;;;18.38;2.67;;;16.60;49.20;;;;;;5073311;28;20187;-52
2023/10/08 08:13:43;;;;;;;14.10;1.90;;;;;;;;;;5073097;28;20172;-53
2023/10/08 08:16:16;;;;;;;13.68;2.15;;;;;;;;;;5073140;28;20217;-50
2023/10/08 08:18:42;;;;;;;11.93;1.50;;;16.50;49.30;;;;;;5073039;28;20235;-52
2023/10/08 08:21:15;;;;;;;7.38;1.17;;;;;;;;;;5072934;28;20183;-53
2023/10/08 08:23:47;;;;;;;10.68;1.65;;;16.40;48.40;;;;;;5071587;28;20200;-51
2023/10/08 08:26:26;;;;;;;12.23;2.00;;;;;;;;;;5073155;28;20642;-53
2023/10/08 08:28:54;;;;;;;16.52;1.98;;;16.30;48.70;;;;;;5072746;28;20637;-53
2023/10/08 08:31:20;;;;;;;14.07;1.90;;;16.20;48.90;;;;;;5071522;28;20183;-50
2023/10/08 08:36:46;;;;;;;14.90;2.20;;;16.20;49.50;;;;;;5090521;28;20203;-51
2023/10/08 08:39:23;;;;;;;13.70;1.75;;;;;;;;;;5090418;28;20557;-53
2023/10/08 08:41:53;;;;;;;12.38;1.52;;;16.20;49.60;;;;;;5090529;28;20183;-50
2023/10/08 08:44:20;;;;;;;13.70;1.80;;;;;;;;;;5090349;28;20172;-51
2023/10/08 08:46:47;;;;;;;13.25;1.50;;;16.20;49.70;;;;;;5090410;28;20179;-53
2023/10/08 08:49:14;;;;;;;16.67;1.83;;;16.20;49.30;;;;;;5090385;28;20233;-55
2023/10/08 08:51:41;;;;;;;15.02;1.67;;;;;;;;;;5090335;28;20183;-51
2023/10/08 08:54:07;;;;;;;11.65;1.33;;;16.30;49.80;;;;;;5090196;28;20180;-52
2023/10/08 08:56:38;;;;;;;13.53;2.43;;;16.30;49.90;;;;;;5090138;28;20584;-54
2023/10/08 08:59:11;;;;;;;13.20;2.05;;;16.30;49.70;;;;;;5090147;28;20426;-52
2023/10/08 09:01:38;;;;;;;13.40;1.70;;;;;;;;;;5090237;28;20175;-51
2023/10/08 09:04:05;;;;;;;8.18;1.13;;;16.30;49.70;;;;;;5089843;28;20198;-53
2023/10/08 09:06:40;;;;;;;14.05;1.90;;;16.40;49.80;;;;;;5090162;28;20191;-51
2023/10/08 09:09:22;;;;;;;22.45;2.45;;;16.40;50.10;;;;;;5090084;28;20764;-51
2023/10/08 09:11:52;;;;;;;14.15;1.65;;;16.40;50.00;;;;;;5090039;28;20176;-51
2023/10/08 09:14:22;;;;;;;11.20;1.35;;;;;;;;;;5071982;28;20593;-54
2023/10/08 09:16:49;;;;;;;12.82;1.73;;;;;;;;;;5072103;28;20197;-50
2023/10/08 09:19:18;;;;;;;14.55;2.58;;;16.50;50.30;;;;;;5072029;28;20211;-51
2023/10/08 09:22:04;;;;;;;10.00;1.33;;;;;;;;;;5071363;28;20223;-55
2023/10/08 09:24:33;;;;;;;11.23;1.40;;;16.60;50.20;;;;;;5071807;28;20230;-53
2023/10/08 09:27:00;;;;;;;11.63;1.75;;;16.60;50.10;;;;;;5070644;28;20727;-50
2023/10/08 09:29:29;;;;;;;15.02;2.33;;;16.70;50.30;;;;;;5072217;28;20215;-51
2023/10/08 09:31:59;;;;;;;12.40;1.55;;;;;;;;;;5071934;28;20263;-52
2023/10/08 09:34:29;;;;;;;14.45;2.17;;;;;;;;;;5071790;28;20255;-51
2023/10/08 09:36:56;;;;;;;11.73;2.08;;;16.70;50.40;;;;;;5071881;28;20185;-53
2023/10/08 09:39:26;;;;;;;12.27;2.05;;;;;;;;;;5071795;28;20200;-53
2023/10/08 09:41:58;;;;;;;10.48;1.80;;;16.80;50.30;;;;;;5071865;28;20173;-50
2023/10/08 09:44:25;;;;;;;14.02;2.53;;;16.80;50.70;;;;;;5071991;28;20255;-55
2023/10/08 09:47:05;;;;;;;10.88;1.75;;;16.80;50.60;;;;;;5071994;28;20164;-53
2023/10/08 09:49:53;;;;;;;11.45;2.53;;;16.80;50.30;;;;;;5071975;28;20306;-52
2023/10/08 09:52:24;;;;;;;12.98;1.88;;;;;;;;;;5072093;28;20172;-55
2023/10/08 09:54:53;;;;;;;13.27;1.55;;;;;;;;;;5071759;28;20633;-52
2023/10/08 09:57:23;;;;;;;7.90;1.30;;;17.00;49.70;;;;;;5071948;28;20239;-53
2023/10/08 09:59:50;;;;;;;8.13;1.45;;;;;;;;;;5071745;28;20184;-54
2023/10/08 10:02:18;;;;;;;12.30;2.22;;;17.10;49.50;;;;;;5071686;28;20164;-52
2023/10/08 10:04:44;;;;;;;13.02;1.75;;;17.20;49.40;;;;;;5071411;28;20227;-55
2023/10/08 10:07:12;;;;;;;12.15;1.50;;;17.30;49.50;;;;;;5071798;28;20173;-57
2023/10/08 10:09:42;;;;;;;13.32;1.77;;;17.30;50.00;;;;;;5071725;28;20346;-53
2023/10/08 10:12:11;;;;;;;12.02;1.65;;;17.40;49.60;;;;;;5071541;28;20635;-51
2023/10/08 10:14:45;;;;;;;13.82;2.42;;;17.40;49.50;;;;;;5071403;28;20714;-54
2023/10/08 10:17:23;;;;;;;16.20;2.05;;;17.50;49.70;;;;;;5071483;28;20196;-53
2023/10/08 10:19:59;;;;;;;10.52;1.67;;;17.70;49.90;;;;;;5071563;28;20532;-51
2023/10/08 10:22:30;;;;;;;15.60;1.95;;;;;;;;;;5071739;28;20665;-56
2023/10/08 10:24:57;;;;;;;11.43;1.27;;;18.00;49.90;;;;;;5071625;28;20192;-53
2023/10/08 10:27:24;;;;;;;18.60;2.70;;;18.10;49.30;;;;;;5071951;28;20193;-54
2023/10/08 10:29:51;;;;;;;14.50;2.67;;;;;;;;;;5070579;28;20683;-56
2023/10/08 10:32:18;;;;;;;17.08;2.40;;;18.20;48.90;;;;;;5072836;28;20180;-57
2023/10/08 10:34:47;;;;;;;15.90;2.05;;;18.30;49.30;;;;;;5075439;28;20176;-53
2023/10/08 10:37:19;;;;;;;14.63;1.80;;;18.20;48.50;;;;;;5075415;28;20204;-55
2023/10/08 10:40:00;;;;;;;15.85;2.53;;;18.40;48.20;;;;;;5075045;28;20184;-53
2023/10/08 10:42:28;;;;;;;14.27;1.50;;;;;;;;;;5075662;28;20249;-52
2023/10/08 10:44:55;;;;;;;17.15;1.90;;;18.30;48.50;;;;;;5075347;28;20223;-55
2023/10/08 10:52:44;;;;;;;18.85;1.98;;;;;;;;;;5075285;28;20161;-52
2023/10/08 10:58:04;;;;;;;1.00;0.55;;;18.80;48.60;;;;;;5075462;28;20223;-54
2023/10/08 11:03:15;;;;;;;1.70;0.90;;;19.00;48.30;;;;;;5074767;28;20165;-50
2023/10/08 11:05:47;;;;;;;1.25;0.77;;;19.10;47.20;;;;;;5075464;28;20550;-56
2023/10/08 11:08:15;;;;;;;1.45;0.80;;;19.20;47.40;;;;;;5074795;28;20242;-52
2023/10/08 11:10:51;;;;;;;1.33;0.73;;;19.20;47.00;;;;;;5074652;28;20204;-54
2023/10/08 11:13:28;;;;;;;4.30;1.70;;;19.30;47.00;;;;;;5074740;28;20192;-55
2023/10/08 11:15:54;;;;;;;1.67;1.00;;;19.20;46.40;;;;;;5074589;28;20167;-53
2023/10/08 11:18:23;;;;;;;1.00;0.60;;;19.30;47.00;;;;;;5074565;28;20254;-55
2023/10/08 11:21:02;;;;;;;1.40;1.00;;;19.30;45.60;;;;;;5074822;28;20165;-54
2023/10/08 11:23:35;;;;;;;1.40;0.70;;;19.20;46.50;;;;;;5074423;28;20550;-55
2023/10/08 11:26:06;;;;;;;1.42;0.85;;;19.10;46.30;;;;;;5074496;28;20178;-52
2023/10/08 11:28:41;;;;;;;1.10;0.70;;;19.20;46.80;;;;;;5074379;28;20221;-52
2023/10/08 11:31:10;;;;;;;1.10;0.60;;;19.20;46.70;;;;;;5074649;28;20313;-56
2023/10/08 11:33:41;;;;;;;1.77;1.40;;;19.30;45.20;;;;;;5073072;28;20215;-52
2023/10/08 11:36:18;;;;;;;3.15;1.05;;;19.40;46.00;;;;;;5074597;28;20183;-55
2023/10/08 11:38:48;;;;;;;1.45;1.20;;;19.40;41.70;;;;;;5074091;28;20767;-52
2023/10/08 11:41:21;;;;;;;1.40;1.05;;;19.50;41.50;;;;;;5074368;28;20176;-52
2023/10/08 11:43:58;;;;;;;1.60;1.40;;;21.60;42.60;;;;;;5072875;28;20181;-55
2023/10/08 11:46:51;;;;;;;1.92;1.63;;;19.50;42.20;;;;;;5073882;28;20175;-53
2023/10/08 11:49:25;;;;;;;1.55;0.93;;;19.70;43.30;;;;;;5073665;28;20200;-52
2023/10/08 11:51:55;;;;;;;2.42;1.20;;;20.10;43.10;;;;;;5073711;28;20191;-53
2023/10/08 11:54:23;;;;;;;4.20;1.77;;;20.50;43.40;;;;;;5073517;28;20180;-56
2023/10/08 11:56:49;;;;;;;3.45;1.45;;;20.70;42.70;;;;;;5073640;28;20207;-52
2023/10/08 11:59:18;;;;;;;5.53;1.67;;;21.00;42.30;;;;;;5073420;28;20690;-53
2023/10/08 12:01:46;;;;;;;4.85;1.60;;;;;;;;;;5073611;28;20406;-53
2023/10/08 12:04:16;;;;;;;7.80;1.53;;;21.00;39.30;;;;;;5073333;28;20183;-55
2023/10/08 12:06:51;;;;;;;2.10;0.77;;;20.90;39.30;;;;;;5073455;28;20480;-52
2023/10/08 12:09:21;;;;;;;1.20;0.67;;;21.00;38.60;;;;;;5073487;28;20208;-56
2023/10/08 12:11:51;;;;;;;1.53;1.00;;;20.60;39.60;;;;;;5073318;28;20407;-53
2023/10/08 12:14:18;;;;;;;3.63;1.40;;;20.50;40.20;;;;;;5073385;28;20403;-52
2023/10/08 12:16:45;;;;;;;8.70;2.13;;;20.40;39.70;;;;;;5071894;28;20410;-55
2023/10/08 12:19:17;;;;;;;2.63;1.37;;;20.30;39.00;;;;;;5073237;28;20185;-53
2023/10/08 12:21:47;;;;;;;6.22;1.88;;;20.30;40.50;;;;;;5071870;28;20506;-55
2023/10/08 12:24:14;;;;;;;3.93;1.40;;;20.20;39.90;;;;;;5072980;28;20212;-53
2023/10/08 12:26:46;;;;;;;3.38;1.75;;;20.20;41.00;;;;;;5073153;28;20409;-56
2023/10/08 12:29:17;;;;;;;3.33;1.50;;;20.30;41.10;;;;;;5073051;28;20683;-53
2023/10/08 12:31:47;;;;;;;5.73;1.53;;;20.30;41.00;;;;;;5072991;28;20396;-53
2023/10/08 12:34:14;;;;;;;6.20;1.67;;;20.40;41.00;;;;;;5073152;28;20406;-54
2023/10/08 12:36:40;;;;;;;5.83;2.10;;;20.30;40.20;;;;;;5072976;28;20434;-55
2023/10/08 12:39:15;;;;;;;6.30;1.77;;;20.20;40.20;;;;;;5072735;28;20833;-54
2023/10/08 12:41:44;;;;;;;5.88;1.60;;;20.20;40.70;;;;;;5072844;28;20962;-56
2023/10/08 12:44:11;;;;;;;4.43;1.70;;;;;;;;;;5072764;28;20195;-53
2023/10/08 12:46:37;;;;;;;5.50;2.13;;;;;;;;;;5072762;28;20407;-55
2023/10/08 12:49:04;;;;;;;5.07;1.85;;;;;;;;;;5072717;28;20438;-52
2023/10/08 12:51:33;;;;;;;5.63;1.77;;;20.10;40.90;;;;;;5072812;28;20723;-54
2023/10/08 12:54:23;;;;;;;4.65;1.38;;;20.00;40.80;;;;;;5072826;28;20804;-56
2023/10/08 12:56:48;;;;;;;5.18;1.50;;;20.00;41.00;;;;;;5072462;28;20176;-56
2023/10/08 12:59:23;;;;;;;6.10;1.55;;;20.00;40.60;;;;;;5072394;28;20220;-53
2023/10/08 13:01:56;;;;;;;4.95;1.58;;;;;;;;;;5072416;28;20241;-56
2023/10/08 13:04:28;;;;;;;6.38;1.70;;;19.90;40.80;;;;;;5072255;28;20732;-53
2023/10/08 13:07:01;;;;;;;5.50;1.80;;;19.80;40.40;;;;;;5072892;28;20599;-53
2023/10/08 13:09:26;;;;;;;9.30;1.92;;;19.80;41.00;;;;;;5072489;28;20200;-54
2023/10/08 13:11:53;;;;;;;8.00;1.93;;;19.80;41.10;;;;;;5072337;28;20169;-56
2023/10/08 13:14:19;;;;;;;7.65;1.80;;;19.80;41.40;;;;;;5072463;28;20531;-53
2023/10/08 13:16:45;;;;;;;4.20;1.63;;;19.80;40.80;;;;;;5072139;28;20175;-53
2023/10/08 13:19:11;;;;;;;5.15;1.83;;;19.80;40.50;;;;;;5072755;28;20318;-55
2023/10/08 13:21:37;;;;;;;4.60;1.33;;;19.80;40.50;;;;;;5072034;28;20196;-55
2023/10/08 13:24:05;;;;;;;4.83;1.53;;;19.90;40.30;;;;;;5072098;28;20207;-54
2023/10/08 13:26:31;;;;;;;4.88;1.50;;;20.00;39.80;;;;;;5072135;28;20399;-55
2023/10/08 13:29:00;;;;;;;5.20;1.87;;;;;;;;;;5072107;28;20223;-54
2023/10/08 13:31:29;;;;;;;3.28;1.27;;;20.30;39.90;;;;;;5072040;28;20204;-52
2023/10/08 13:34:02;;;;;;;2.60;1.10;;;20.50;39.20;;;;;;5072145;28;20172;-55
2023/10/08 13:36:28;;;;;;;4.32;1.73;;;;;;;;;;5072092;28;20575;-52
2023/10/08 13:38:55;;;;;;;5.18;1.45;;;20.70;37.80;;;;;;5072160;28;20207;-54
2023/10/08 13:41:21;;;;;;;6.85;1.80;;;20.70;38.20;;;;;;5071928;28;20706;-54
2023/10/08 13:43:53;;;;;;;5.47;2.10;;;20.70;37.80;;;;;;5071990;28;20172;-52
2023/10/08 13:46:22;;;;;;;6.30;1.35;;;;;;;;;;5072221;28;20765;-53
2023/10/08 13:48:49;;;;;;;6.40;1.42;;;;;;;;;;5072105;28;20254;-56
2023/10/08 13:51:25;;;;;;;7.25;1.95;;;;;;;;;;5071724;28;20172;-54
2023/10/08 13:53:52;;;;;;;8.75;1.90;;;20.60;38.10;;;;;;5071767;28;20172;-52
2023/10/08 13:56:26;;;;;;;8.57;1.63;;;20.60;37.60;;;;;;5072086;28;20650;-53
2023/10/08 13:59:00;;;;;;;6.82;1.60;;;20.60;37.90;;;;;;5071719;28;20807;-56
2023/10/08 14:01:26;;;;;;;5.32;1.48;;;;;;;;;;5071914;28;20662;-53
2023/10/08 14:04:04;;;;;;;7.78;1.83;;;20.50;37.40;;;;;;5071574;28;20180;-52
2023/10/08 14:06:29;;;;;;;9.52;1.83;;;20.40;37.30;;;;;;5071905;28;20160;-55
2023/10/08 14:08:55;;;;;;;5.97;1.20;;;20.40;37.10;;;;;;5075389;28;20547;-55
2023/10/08 14:11:29;;;;;;;6.70;1.47;;;20.30;37.20;;;;;;5074314;28;20164;-52
2023/10/08 14:14:07;;;;;;;8.88;2.20;;;20.30;36.80;;;;;;5074214;28;20230;-55
2023/10/08 14:16:34;;;;;;;7.65;2.00;;;20.20;37.50;;;;;;5075540;28;20192;-51
2023/10/08 14:19:04;;;;;;;1.40;0.90;;;20.10;37.70;;;;;;5075700;28;20809;-56
2023/10/08 14:21:31;;;;;;;1.30;0.80;;;20.10;38.50;;;;;;5075636;28;20267;-54
2023/10/08 14:24:02;;;;;;;1.35;0.70;;;20.00;38.60;;;;;;5075286;28;20172;-53
2023/10/08 14:26:35;;;;;;;4.78;0.95;;;20.00;38.70;;;;;;5075533;28;20176;-55
2023/10/08 14:29:07;;;;;;;1.20;0.82;;;20.00;38.90;;;;;;5074215;28;20188;-55
2023/10/08 14:31:33;;;;;;;1.20;0.70;;;19.90;39.10;;;;;;5075881;28;20192;-54
2023/10/08 14:34:18;;;;;;;1.48;0.88;;;19.90;39.30;;;;;;5075268;28;20177;-51
2023/10/08 14:44:58;;;;;;;1.67;1.33;;;19.60;40.10;;;;;;5074989;28;20286;-55
2023/10/08 14:47:23;;;;;;;4.73;1.30;;;19.50;39.60;;;;;;5075378;28;20204;-51